Time;durP1;ratioP1;P1;durP2;ratioP2;P2;SDS_P1;SDS_P2;PMS_P1;PMS_P2;Temp;Humidity;BMP_temperature;BMP_pressure;BME280_temperature;BME280_humidity;BME280_pressure;Samples;Min_cycle;Max_cycle;Signal;HPM_P1;HPM_P2
2022/08/27 00:01:08;;;;;;;5.43;4.93;;;;;;;;;;5093700;28;20448;-78
2022/08/27 00:03:36;;;;;;;5.80;5.30;;;;;;;;;;5093944;28;21035;-77
2022/08/27 00:06:03;;;;;;;4.70;4.30;;;;;;;;;;5092908;28;20483;-78
2022/08/27 00:08:31;;;;;;;4.90;4.20;;;;;;;;;;5094708;28;20439;-77
2022/08/27 00:10:58;;;;;;;4.00;3.60;;;;;;;;;;5093148;28;20976;-77
2022/08/27 00:13:25;;;;;;;5.30;3.80;;;;;;;;;;5088562;28;20800;-78
2022/08/27 00:15:54;;;;;;;5.70;4.30;;;;;;;;;;5089281;28;20479;-77
2022/08/27 00:18:22;;;;;;;4.47;3.30;;;;;;;;;;5093645;28;20518;-78
2022/08/27 00:20:49;;;;;;;4.73;3.33;;;;;;;;;;5093303;28;20453;-77
2022/08/27 00:23:16;;;;;;;4.17;3.53;;;;;;;;;;5093328;28;20475;-78
2022/08/27 00:25:44;;;;;;;4.60;3.73;;;;;;;;;;5093664;28;20660;-78
2022/08/27 00:28:11;;;;;;;3.83;3.20;;;;;;;;;;5093984;28;20440;-78
2022/08/27 00:30:39;;;;;;;4.53;3.60;;;;;;;;;;5095253;28;20436;-78
2022/08/27 00:33:07;;;;;;;6.20;5.60;;;;;;;;;;5092869;28;20436;-79
2022/08/27 00:35:35;;;;;;;6.30;5.50;;;;;;;;;;5088293;28;20482;-79
2022/08/27 00:38:03;;;;;;;9.70;7.53;;;;;;;;;;5090235;28;20837;-79
2022/08/27 00:40:32;;;;;;;11.17;9.60;;;;;;;;;;5093181;28;20466;-79
2022/08/27 00:43:01;;;;;;;13.57;12.17;;;;;;;;;;5092912;28;20526;-78
2022/08/27 00:45:29;;;;;;;12.47;11.20;;;;;;;;;;5091776;28;20463;-77
2022/08/27 00:47:58;;;;;;;14.97;10.73;;;;;;;;;;5093616;28;20439;-77
2022/08/27 00:50:31;;;;;;;11.10;9.87;;;;;;;;;;5095140;28;20494;-77
2022/08/27 00:53:00;;;;;;;17.90;15.50;;;;;;;;;;5098034;28;20956;-77
2022/08/27 00:55:32;;;;;;;19.93;17.93;;;;;;;;;;5101382;28;20566;-78
2022/08/27 00:58:03;;;;;;;26.30;22.30;;;;;;;;;;5090172;28;20459;-78
2022/08/27 01:00:30;;;;;;;28.50;25.03;;;;;;;;;;5089275;28;20446;-78
2022/08/27 01:02:57;;;;;;;33.43;27.93;;;;;;;;;;5092611;28;20450;-77
2022/08/27 01:05:26;;;;;;;28.60;25.50;;;;;;;;;;5092290;28;20463;-79
2022/08/27 01:07:59;;;;;;;27.40;24.40;;;;;;;;;;5092574;28;20500;-79
2022/08/27 01:10:27;;;;;;;28.93;25.17;;;;;;;;;;5092653;28;20442;-78
2022/08/27 01:12:55;;;;;;;27.73;24.60;;;;;;;;;;5092111;28;20435;-76
2022/08/27 01:15:23;;;;;;;28.43;25.53;;;;;;;;;;5094320;28;20566;-78
2022/08/27 01:17:51;;;;;;;25.97;23.17;;;;;;;;;;5090184;28;20514;-78
2022/08/27 01:20:22;;;;;;;24.63;22.03;;;;;;;;;;5087928;28;20428;-77
2022/08/27 01:22:54;;;;;;;24.40;21.70;;;;;;;;;;5089802;28;20959;-78
2022/08/27 01:25:23;;;;;;;23.50;19.50;;;;;;;;;;5091362;28;20456;-77
2022/08/27 01:27:51;;;;;;;22.03;18.80;;;;;;;;;;5092281;28;20944;-77
2022/08/27 01:30:20;;;;;;;19.63;17.20;;;;;;;;;;5092405;28;20439;-77
2022/08/27 01:32:48;;;;;;;25.23;20.07;;;;;;;;;;5091192;28;20920;-77
2022/08/27 01:35:16;;;;;;;21.60;19.07;;;;;;;;;;5091513;28;20509;-77
2022/08/27 01:37:44;;;;;;;20.23;17.90;;;;;;;;;;5093981;28;20452;-77
2022/08/27 01:40:12;;;;;;;24.97;20.37;;;;;;;;;;5092108;28;20985;-78
2022/08/27 01:42:42;;;;;;;29.23;25.27;;;;;;;;;;5087644;28;20522;-78
2022/08/27 01:45:10;;;;;;;28.47;24.60;;;;;;;;;;5087525;28;20574;-77
2022/08/27 01:47:38;;;;;;;35.07;28.40;;;;;;;;;;5091530;28;20482;-78
2022/08/27 01:50:07;;;;;;;34.73;29.20;;;;;;;;;;5091441;28;20445;-77
2022/08/27 01:52:34;;;;;;;38.07;31.90;;;;;;;;;;5091782;28;20519;-78
2022/08/27 01:55:01;;;;;;;39.83;32.50;;;;;;;;;;5094310;28;20560;-79
2022/08/27 01:57:28;;;;;;;37.40;32.30;;;;;;;;;;5092911;28;20447;-79
2022/08/27 01:59:57;;;;;;;36.57;30.70;;;;;;;;;;5092818;28;20440;-78
2022/08/27 02:02:24;;;;;;;39.80;33.20;;;;;;;;;;5092835;28;20455;-78
2022/08/27 02:04:52;;;;;;;37.40;30.83;;;;;;;;;;5087203;28;20448;-78
2022/08/27 02:07:19;;;;;;;39.10;32.60;;;;;;;;;;5088288;28;20432;-79
2022/08/27 02:09:46;;;;;;;37.30;32.03;;;;;;;;;;5091155;28;20474;-78
2022/08/27 02:12:13;;;;;;;41.90;33.27;;;;;;;;;;5091416;28;20533;-79
2022/08/27 02:14:40;;;;;;;41.73;33.57;;;;;;;;;;5091681;28;20538;-79
2022/08/27 02:17:11;;;;;;;39.67;33.03;;;;;;;;;;5091658;28;20483;-78
2022/08/27 02:19:38;;;;;;;35.37;30.43;;;;;;;;;;5091864;28;20466;-79
2022/08/27 02:22:05;;;;;;;42.17;33.53;;;;;;;;;;5093580;28;20439;-79
2022/08/27 02:24:33;;;;;;;37.63;31.33;;;;;;;;;;5093339;28;20439;-79
2022/08/27 02:27:00;;;;;;;42.17;33.60;;;;;;;;;;5087318;28;20435;-78
2022/08/27 02:29:28;;;;;;;41.33;32.97;;;;;;;;;;5087700;28;20446;-78
2022/08/27 02:31:55;;;;;;;42.63;33.60;;;;;;;;;;5090469;28;20879;-78
2022/08/27 02:34:23;;;;;;;37.90;31.13;;;;;;;;;;5091275;28;20546;-79
2022/08/27 02:36:52;;;;;;;40.23;32.80;;;;;;;;;;5093152;28;20483;-79
2022/08/27 02:39:19;;;;;;;37.87;31.30;;;;;;;;;;5095574;28;20443;-78
2022/08/27 02:41:47;;;;;;;38.70;30.97;;;;;;;;;;5095124;28;20522;-78
2022/08/27 02:44:14;;;;;;;41.87;32.40;;;;;;;;;;5097292;28;20443;-78
2022/08/27 02:46:42;;;;;;;38.93;32.37;;;;;;;;;;5097339;28;20445;-78
2022/08/27 02:49:10;;;;;;;45.17;33.37;;;;;;;;;;5092051;28;20988;-78
2022/08/27 02:51:38;;;;;;;40.57;32.90;;;;;;;;;;5089394;28;20427;-78
2022/08/27 02:54:06;;;;;;;40.73;32.83;;;;;;;;;;5092446;28;20428;-77
2022/08/27 02:56:33;;;;;;;43.53;33.60;;;;;;;;;;5094410;28;20566;-79
2022/08/27 02:59:00;;;;;;;39.13;33.97;;;;;;;;;;5095214;28;20443;-77
2022/08/27 03:01:27;;;;;;;38.63;29.70;;;;;;;;;;5095551;28;20423;-77
2022/08/27 03:03:55;;;;;;;38.00;33.00;;;;;;;;;;5094193;28;20534;-78
2022/08/27 03:06:22;;;;;;;39.50;32.00;;;;;;;;;;5096638;28;20486;-78
2022/08/27 03:08:50;;;;;;;34.30;29.87;;;;;;;;;;5096785;28;20542;-78
2022/08/27 03:11:17;;;;;;;36.60;29.70;;;;;;;;;;5092631;28;20444;-78
2022/08/27 03:13:45;;;;;;;35.37;30.07;;;;;;;;;;5090615;28;20423;-79
2022/08/27 03:16:12;;;;;;;34.90;29.70;;;;;;;;;;5092573;28;20497;-78
2022/08/27 03:18:39;;;;;;;31.90;28.10;;;;;;;;;;5094306;28;20497;-78
2022/08/27 03:21:07;;;;;;;31.83;27.73;;;;;;;;;;5094427;28;20920;-78
2022/08/27 03:23:34;;;;;;;35.30;26.40;;;;;;;;;;5094484;28;20474;-78
2022/08/27 03:26:03;;;;;;;35.67;26.50;;;;;;;;;;5094306;28;20464;-78
2022/08/27 03:28:32;;;;;;;32.40;25.70;;;;;;;;;;5094401;28;20530;-77
2022/08/27 03:31:00;;;;;;;32.90;24.47;;;;;;;;;;5095276;28;20482;-78
2022/08/27 03:33:28;;;;;;;33.80;26.87;;;;;;;;;;5093388;28;20514;-78
2022/08/27 03:35:55;;;;;;;31.33;26.40;;;;;;;;;;5089279;28;20497;-79
2022/08/27 03:38:22;;;;;;;32.33;26.90;;;;;;;;;;5091422;28;20523;-77
2022/08/27 03:40:50;;;;;;;30.83;25.50;;;;;;;;;;5093950;28;20525;-78
2022/08/27 03:43:20;;;;;;;31.07;26.40;;;;;;;;;;5093865;28;20883;-78
2022/08/27 03:45:47;;;;;;;35.37;26.00;;;;;;;;;;5093888;28;20508;-79
2022/08/27 03:48:15;;;;;;;29.50;22.83;;;;;;;;;;5093296;28;20479;-77
2022/08/27 03:50:45;;;;;;;29.63;25.20;;;;;;;;;;5094570;28;20459;-77
2022/08/27 03:53:13;;;;;;;30.50;24.40;;;;;;;;;;5094920;28;20757;-77
2022/08/27 03:55:42;;;;;;;28.10;22.57;;;;;;;;;;5092679;28;20452;-78
2022/08/27 03:58:09;;;;;;;24.40;20.33;;;;;;;;;;5088093;28;20435;-78
2022/08/27 04:00:38;;;;;;;24.00;20.00;;;;;;;;;;5090616;28;20530;-77
2022/08/27 04:03:06;;;;;;;24.67;21.00;;;;;;;;;;5093462;28;20806;-79
2022/08/27 04:05:33;;;;;;;23.43;20.00;;;;;;;;;;5092107;28;20463;-78
2022/08/27 04:08:01;;;;;;;26.63;18.50;;;;;;;;;;5092507;28;20530;-78
2022/08/27 04:10:28;;;;;;;29.97;18.13;;;;;;;;;;5093991;28;20999;-75
2022/08/27 04:12:55;;;;;;;19.07;16.57;;;;;;;;;;5093987;28;20543;-78
2022/08/27 04:15:22;;;;;;;22.60;17.10;;;;;;;;;;5095517;28;20465;-77
2022/08/27 04:17:51;;;;;;;22.03;15.90;;;;;;;;;;5094963;28;20558;-78
2022/08/27 04:20:18;;;;;;;19.80;16.23;;;;;;;;;;5089384;28;20434;-78
2022/08/27 04:22:45;;;;;;;21.73;15.93;;;;;;;;;;5089937;28;20518;-78
2022/08/27 04:25:12;;;;;;;19.13;14.60;;;;;;;;;;5092364;28;20457;-78
2022/08/27 04:27:40;;;;;;;16.60;13.50;;;;;;;;;;5092810;28;20542;-78
2022/08/27 04:30:09;;;;;;;16.13;12.57;;;;;;;;;;5093228;28;21001;-77
2022/08/27 04:32:36;;;;;;;17.67;13.70;;;;;;;;;;5093250;28;20440;-78
2022/08/27 04:35:06;;;;;;;21.70;14.50;;;;;;;;;;5091733;28;20828;-79
2022/08/27 04:37:33;;;;;;;16.43;13.10;;;;;;;;;;5095617;28;20971;-79
2022/08/27 04:40:01;;;;;;;17.17;13.60;;;;;;;;;;5095177;28;20534;-78
2022/08/27 04:42:28;;;;;;;19.40;15.10;;;;;;;;;;5089466;28;20831;-79
2022/08/27 04:44:55;;;;;;;16.57;14.37;;;;;;;;;;5088257;28;20936;-77
2022/08/27 04:47:22;;;;;;;17.47;14.90;;;;;;;;;;5092075;28;20522;-77
2022/08/27 04:49:50;;;;;;;15.83;14.13;;;;;;;;;;5092486;28;20807;-77
2022/08/27 04:52:18;;;;;;;18.50;14.60;;;;;;;;;;5092886;28;20534;-77
2022/08/27 04:54:45;;;;;;;15.67;14.03;;;;;;;;;;5092975;28;20463;-77
2022/08/27 04:57:13;;;;;;;15.73;13.53;;;;;;;;;;5092091;28;20474;-79
2022/08/27 04:59:40;;;;;;;18.80;15.13;;;;;;;;;;5094528;28;20869;-77
2022/08/27 05:02:09;;;;;;;17.63;13.80;;;;;;;;;;5094714;28;21316;-79
2022/08/27 05:04:38;;;;;;;14.80;11.93;;;;;;;;;;5089127;28;20448;-78
2022/08/27 05:07:07;;;;;;;13.90;12.23;;;;;;;;;;5086952;28;20438;-78
2022/08/27 05:09:36;;;;;;;15.90;11.47;;;;;;;;;;5089686;28;20526;-78
2022/08/27 05:12:03;;;;;;;15.70;12.50;;;;;;;;;;5091858;28;20474;-78
2022/08/27 05:14:31;;;;;;;13.97;11.50;;;;;;;;;;5092446;28;20504;-77
2022/08/27 05:16:59;;;;;;;13.30;10.83;;;;;;;;;;5092657;28;20883;-77
2022/08/27 05:19:26;;;;;;;13.00;10.17;;;;;;;;;;5090999;28;20424;-77
2022/08/27 05:21:53;;;;;;;11.63;9.50;;;;;;;;;;5093667;28;20460;-77
2022/08/27 05:24:21;;;;;;;13.83;9.37;;;;;;;;;;5094912;28;20465;-77
2022/08/27 05:26:50;;;;;;;11.97;9.40;;;;;;;;;;5089713;28;20416;-77
2022/08/27 05:29:17;;;;;;;13.93;9.90;;;;;;;;;;5088019;28;20432;-77
2022/08/27 05:31:46;;;;;;;14.33;9.13;;;;;;;;;;5089863;28;20438;-77
2022/08/27 05:34:14;;;;;;;12.10;8.40;;;;;;;;;;5091853;28;20461;-77
2022/08/27 05:36:41;;;;;;;11.23;9.77;;;;;;;;;;5091548;28;20486;-78
2022/08/27 05:39:09;;;;;;;12.73;9.50;;;;;;;;;;5091894;28;20534;-76
2022/08/27 05:41:38;;;;;;;16.63;8.97;;;;;;;;;;5092134;28;20443;-77
2022/08/27 05:44:09;;;;;;;10.37;8.40;;;;;;;;;;5092806;28;20447;-78
2022/08/27 05:46:38;;;;;;;13.10;9.20;;;;;;;;;;5093835;28;20475;-77
2022/08/27 05:49:06;;;;;;;13.67;8.53;;;;;;;;;;5091291;28;20850;-78
2022/08/27 05:51:34;;;;;;;10.17;8.57;;;;;;;;;;5087409;28;20432;-76
2022/08/27 05:54:02;;;;;;;12.53;8.23;;;;;;;;;;5089279;28;20449;-77
2022/08/27 05:56:30;;;;;;;9.97;8.27;;;;;;;;;;5090297;28;20487;-77
2022/08/27 06:01:41;;;;;;;12.87;10.43;;;;;;;;;;5091582;28;20429;-77
2022/08/27 06:04:09;;;;;;;10.33;9.03;;;;;;;;;;5090483;28;20526;-77
2022/08/27 06:06:37;;;;;;;10.27;8.93;;;;;;;;;;5092332;28;20502;-78
2022/08/27 06:09:04;;;;;;;11.63;10.53;;;;;;;;;;5093689;28;20526;-78
2022/08/27 06:11:31;;;;;;;12.73;10.37;;;;;;;;;;5093053;28;20427;-78
2022/08/27 06:13:59;;;;;;;12.00;10.17;;;;;;;;;;5091480;28;20440;-77
2022/08/27 06:16:26;;;;;;;13.70;12.03;;;;;;;;;;5092363;28;20447;-77
2022/08/27 06:18:56;;;;;;;10.73;9.67;;;;;;;;;;5095468;28;20439;-79
2022/08/27 06:21:24;;;;;;;11.00;10.00;;;;;;;;;;5095568;28;20438;-77
2022/08/27 06:23:52;;;;;;;11.50;10.30;;;;;;;;;;5094203;28;20927;-77
2022/08/27 06:26:19;;;;;;;13.27;11.97;;;;;;;;;;5096333;28;20857;-78
2022/08/27 06:28:48;;;;;;;14.17;11.00;;;;;;;;;;5094906;28;20450;-78
2022/08/27 06:31:16;;;;;;;15.50;11.67;;;;;;;;;;5097360;28;20527;-78
2022/08/27 06:33:45;;;;;;;13.33;9.90;;;;;;;;;;5095091;28;20519;-77
2022/08/27 06:36:14;;;;;;;10.03;9.10;;;;;;;;;;5089494;28;20477;-77
2022/08/27 06:38:42;;;;;;;10.73;9.73;;;;;;;;;;5092003;28;20485;-81
2022/08/27 06:41:10;;;;;;;10.40;8.60;;;;;;;;;;5095071;28;20447;-80
2022/08/27 06:43:38;;;;;;;8.80;8.10;;;;;;;;;;5094994;28;21033;-79
2022/08/27 06:46:05;;;;;;;9.30;8.00;;;;;;;;;;5094944;28;20451;-77
2022/08/27 06:48:33;;;;;;;9.20;8.20;;;;;;;;;;5095593;28;20538;-79
2022/08/27 06:51:00;;;;;;;8.93;7.70;;;;;;;;;;5094238;28;20546;-79
2022/08/27 06:53:28;;;;;;;10.73;8.30;;;;;;;;;;5097150;28;20439;-80
2022/08/27 06:55:56;;;;;;;10.17;7.43;;;;;;;;;;5097046;28;20551;-78
2022/08/27 06:58:23;;;;;;;10.90;8.73;;;;;;;;;;5090472;28;21063;-78
2022/08/27 07:00:50;;;;;;;8.60;7.70;;;;;;;;;;5091287;28;20927;-78
2022/08/27 07:03:18;;;;;;;8.33;7.00;;;;;;;;;;5094098;28;20421;-78
2022/08/27 07:05:45;;;;;;;9.03;7.73;;;;;;;;;;5093201;28;20466;-77
2022/08/27 07:08:12;;;;;;;7.30;6.57;;;;;;;;;;5094749;28;20443;-78
2022/08/27 07:10:41;;;;;;;9.87;6.67;;;;;;;;;;5095083;28;20876;-78
2022/08/27 07:13:09;;;;;;;8.83;7.93;;;;;;;;;;5094709;28;20450;-79
2022/08/27 07:15:38;;;;;;;8.13;7.33;;;;;;;;;;5096728;28;20561;-79
2022/08/27 07:18:06;;;;;;;9.03;7.60;;;;;;;;;;5096777;28;20497;-77
2022/08/27 07:20:33;;;;;;;9.40;8.47;;;;;;;;;;5092395;28;20435;-79
2022/08/27 07:23:01;;;;;;;11.13;8.33;;;;;;;;;;5088812;28;20459;-79
2022/08/27 07:25:30;;;;;;;8.70;7.67;;;;;;;;;;5094539;28;20538;-78
2022/08/27 07:27:59;;;;;;;9.77;8.23;;;;;;;;;;5097932;28;20418;-78
2022/08/27 07:30:27;;;;;;;11.03;8.20;;;;;;;;;;5099328;28;20420;-77
2022/08/27 07:32:55;;;;;;;10.17;8.33;;;;;;;;;;5086945;28;20463;-77
2022/08/27 07:35:22;;;;;;;10.13;8.37;;;;;;;;;;5094178;28;20566;-78
2022/08/27 07:37:49;;;;;;;7.10;6.30;;;;;;;;;;5095447;28;20545;-77
2022/08/27 07:40:17;;;;;;;7.43;6.83;;;;;;;;;;5096539;28;20485;-78
2022/08/27 07:45:29;;;;;;;9.47;6.67;;;;;;;;;;5089476;28;20903;-78
2022/08/27 07:47:57;;;;;;;9.73;7.57;;;;;;;;;;5091944;28;20467;-79
2022/08/27 07:50:24;;;;;;;9.13;7.27;;;;;;;;;;5093648;28;20530;-77
2022/08/27 07:52:51;;;;;;;7.80;7.07;;;;;;;;;;5094254;28;20498;-78
2022/08/27 07:55:19;;;;;;;7.50;6.80;;;;;;;;;;5093923;28;20546;-78
2022/08/27 07:57:47;;;;;;;7.40;6.70;;;;;;;;;;5093895;28;20479;-77
2022/08/27 08:00:15;;;;;;;8.33;6.77;;;;;;;;;;5093572;28;20454;-78
2022/08/27 08:02:46;;;;;;;10.10;7.03;;;;;;;;;;5095943;28;20444;-78
2022/08/27 08:05:14;;;;;;;6.77;5.87;;;;;;;;;;5094063;28;20980;-78
2022/08/27 08:07:41;;;;;;;7.10;6.40;;;;;;;;;;5088296;28;20435;-78
2022/08/27 08:10:10;;;;;;;6.80;6.10;;;;;;;;;;5090608;28;20450;-77
2022/08/27 08:12:37;;;;;;;7.53;6.80;;;;;;;;;;5092136;28;20526;-77
2022/08/27 08:15:05;;;;;;;8.30;7.40;;;;;;;;;;5091928;28;20545;-77
2022/08/27 08:17:33;;;;;;;8.77;7.80;;;;;;;;;;5093321;28;20972;-86
2022/08/27 08:20:02;;;;;;;9.40;5.90;;;;;;;;;;5094065;28;20457;-81
2022/08/27 08:22:29;;;;;;;10.13;6.50;;;;;;;;;;5093808;28;20451;-77
2022/08/27 08:24:56;;;;;;;8.30;7.50;;;;;;;;;;5095311;28;20538;-77
2022/08/27 08:27:23;;;;;;;13.07;7.20;;;;;;;;;;5093934;28;20439;-76
2022/08/27 08:29:51;;;;;;;6.53;6.00;;;;;;;;;;5089156;28;20442;-77
2022/08/27 08:32:19;;;;;;;9.23;7.17;;;;;;;;;;5088247;28;20427;-76
2022/08/27 08:34:47;;;;;;;10.20;7.10;;;;;;;;;;5091356;28;20485;-77
2022/08/27 08:37:16;;;;;;;11.53;7.90;;;;;;;;;;5092475;28;20451;-77
2022/08/27 08:39:43;;;;;;;11.10;8.70;;;;;;;;;;5092966;28;20542;-81
2022/08/27 08:42:22;;;;;;;9.63;8.80;;;;;;;;;;5093072;28;20526;-77
2022/08/27 08:44:52;;;;;;;9.83;8.87;;;;;;;;;;5092733;28;20459;-82
2022/08/27 08:47:22;;;;;;;11.67;10.57;;;;;;;;;;5091906;28;20457;-78
2022/08/27 08:49:52;;;;;;;11.80;10.53;;;;;;;;;;5088439;28;20435;-77
2022/08/27 08:52:27;;;;;;;13.43;11.03;;;;;;;;;;5090487;28;20410;-78
2022/08/27 08:54:56;;;;;;;11.73;10.73;;;;;;;;;;5092129;28;20846;-78
2022/08/27 08:57:43;;;;;;;13.37;12.07;;;;;;;;;;5092386;28;20490;-81
2022/08/27 09:00:14;;;;;;;14.53;12.93;;;;;;;;;;5049540;28;20544;-86
2022/08/27 09:02:41;;;;;;;14.20;12.90;;;;;;;;;;5049259;28;20456;-88
2022/08/27 09:05:12;;;;;;;14.53;13.13;;;;;;;;;;5048214;28;20573;-83
2022/08/27 09:07:44;;;;;;;15.50;14.00;;;;;;;;;;5045101;28;20434;-85
2022/08/27 09:10:14;;;;;;;15.93;14.33;;;;;;;;;;5047053;28;20440;-88
2022/08/27 09:12:41;;;;;;;17.47;15.50;;;;;;;;;;5049342;28;20487;-85
2022/08/27 09:15:30;;;;;;;16.70;15.10;;;;;;;;;;5048056;28;20527;-75
2022/08/27 09:20:23;;;;;;;16.07;14.47;;;;;;;;;;5028659;28;20939;-77
2022/08/27 09:22:53;;;;;;;14.77;13.27;;;;;;;;;;5050355;28;20212;-79
2022/08/27 09:25:23;;;;;;;13.63;12.20;;;;;;;;;;5045259;28;20487;-77
2022/08/27 09:27:52;;;;;;;15.00;13.43;;;;;;;;;;5046026;28;20425;-77
2022/08/27 09:30:21;;;;;;;13.70;12.20;;;;;;;;;;5032778;28;20447;-76
2022/08/27 09:32:55;;;;;;;13.13;10.70;;;;;;;;;;5048938;28;21085;-76
2022/08/27 09:35:22;;;;;;;12.00;10.80;;;;;;;;;;5037480;28;20471;-75
2022/08/27 09:37:53;;;;;;;13.70;9.90;;;;;;;;;;5070702;28;20565;-80
2022/08/27 09:40:30;;;;;;;11.00;9.90;;;;;;;;;;5080633;28;20534;-77
2022/08/27 09:42:59;;;;;;;12.30;10.13;;;;;;;;;;5094330;28;20435;-74
2022/08/27 09:45:28;;;;;;;10.83;9.20;;;;;;;;;;5091136;28;20884;-82
2022/08/27 09:48:03;;;;;;;8.53;7.63;;;;;;;;;;5087275;28;20443;-82
2022/08/27 09:50:33;;;;;;;9.13;8.23;;;;;;;;;;5087646;28;20466;-80
2022/08/27 09:53:03;;;;;;;9.13;8.33;;;;;;;;;;5091710;28;20457;-83
2022/08/27 09:55:39;;;;;;;8.57;7.57;;;;;;;;;;5091459;28;20551;-83
2022/08/27 09:58:08;;;;;;;8.47;7.60;;;;;;;;;;5091843;28;20477;-85
2022/08/27 10:00:38;;;;;;;10.33;8.13;;;;;;;;;;5092013;28;20481;-87
2022/08/27 10:03:07;;;;;;;8.67;7.63;;;;;;;;;;5092445;28;20470;-86
2022/08/27 10:05:38;;;;;;;9.57;6.83;;;;;;;;;;5093833;28;20547;-83
2022/08/27 10:08:18;;;;;;;11.57;7.70;;;;;;;;;;5090499;28;20582;-83
2022/08/27 10:10:50;;;;;;;13.63;8.23;;;;;;;;;;5086987;28;20431;-81
2022/08/27 10:13:19;;;;;;;8.13;7.33;;;;;;;;;;5089412;28;20451;-83
2022/08/27 10:15:52;;;;;;;8.73;7.73;;;;;;;;;;5091572;28;21094;-79
2022/08/27 10:18:23;;;;;;;10.93;7.93;;;;;;;;;;5091350;28;20574;-82
2022/08/27 10:21:00;;;;;;;12.00;7.47;;;;;;;;;;5092009;28;20538;-84
2022/08/27 10:23:34;;;;;;;10.43;8.77;;;;;;;;;;5091354;28;20580;-84
2022/08/27 10:26:06;;;;;;;9.00;8.10;;;;;;;;;;5072993;28;20456;-81
2022/08/27 10:28:39;;;;;;;10.20;8.43;;;;;;;;;;5074020;28;20547;-85
2022/08/27 10:31:10;;;;;;;8.17;6.63;;;;;;;;;;5084490;28;20463;-83
2022/08/27 10:33:43;;;;;;;12.00;8.30;;;;;;;;;;5085749;28;20432;-83
2022/08/27 10:36:16;;;;;;;14.63;8.07;;;;;;;;;;5090251;28;20549;-81
2022/08/27 10:38:48;;;;;;;11.57;8.10;;;;;;;;;;5090837;28;20548;-85
2022/08/27 10:41:17;;;;;;;7.53;6.80;;;;;;;;;;5091341;28;20530;-82
2022/08/27 10:43:54;;;;;;;9.90;7.23;;;;;;;;;;5092090;28;20526;-81
2022/08/27 10:46:31;;;;;;;8.83;6.97;;;;;;;;;;5091076;28;20558;-81
2022/08/27 10:49:00;;;;;;;8.53;6.40;;;;;;;;;;5093222;28;20541;-87
2022/08/27 10:51:32;;;;;;;7.20;6.20;;;;;;;;;;5093668;28;20964;-87
2022/08/27 10:54:05;;;;;;;9.10;6.20;;;;;;;;;;5085880;28;20444;-88
2022/08/27 10:56:34;;;;;;;10.50;5.67;;;;;;;;;;5087132;28;20443;-86
2022/08/27 10:59:06;;;;;;;5.80;5.13;;;;;;;;;;5094286;28;20561;-90
2022/08/27 11:01:38;;;;;;;6.97;5.60;;;;;;;;;;5094727;28;20530;-83
2022/08/27 11:04:07;;;;;;;8.40;5.10;;;;;;;;;;5094147;28;20500;-83
2022/08/27 11:06:36;;;;;;;5.70;5.10;;;;;;;;;;5093859;28;20550;-83
2022/08/27 11:09:10;;;;;;;5.47;4.93;;;;;;;;;;5094897;28;20966;-82
2022/08/27 11:11:40;;;;;;;6.00;4.67;;;;;;;;;;5097129;28;20852;-88
2022/08/27 11:14:09;;;;;;;8.23;5.20;;;;;;;;;;5095632;28;20431;-83
2022/08/27 11:16:40;;;;;;;6.07;5.47;;;;;;;;;;5091715;28;20542;-85
2022/08/27 11:19:11;;;;;;;7.27;4.73;;;;;;;;;;5090460;28;21062;-85
2022/08/27 11:21:41;;;;;;;7.67;5.00;;;;;;;;;;5093654;28;20442;-83
2022/08/27 11:24:15;;;;;;;5.40;4.73;;;;;;;;;;5094015;28;20527;-82
2022/08/27 11:26:43;;;;;;;5.80;4.20;;;;;;;;;;5094440;28;20534;-84
2022/08/27 11:29:14;;;;;;;4.73;4.20;;;;;;;;;;5095142;28;20530;-84
2022/08/27 11:31:44;;;;;;;5.33;4.80;;;;;;;;;;5094014;28;20512;-84
2022/08/27 11:34:14;;;;;;;6.43;5.30;;;;;;;;;;5096275;28;21009;-83
2022/08/27 11:36:49;;;;;;;5.60;4.70;;;;;;;;;;5096046;28;20474;-83
2022/08/27 11:39:23;;;;;;;7.27;5.10;;;;;;;;;;5091303;28;20823;-83
2022/08/27 11:41:55;;;;;;;8.10;5.20;;;;;;;;;;5091134;28;20519;-85
2022/08/27 11:44:23;;;;;;;7.87;5.17;;;;;;;;;;5093183;28;20878;-83
2022/08/27 11:46:52;;;;;;;6.07;5.23;;;;;;;;;;5093640;28;20947;-81
2022/08/27 11:49:25;;;;;;;8.77;6.17;;;;;;;;;;5092680;28;20538;-83
2022/08/27 11:51:57;;;;;;;6.57;5.70;;;;;;;;;;5094647;28;20478;-85
2022/08/27 11:54:27;;;;;;;7.33;6.57;;;;;;;;;;5093732;28;20520;-85
2022/08/27 11:56:55;;;;;;;7.50;5.40;;;;;;;;;;5094915;28;20542;-85
2022/08/27 11:59:23;;;;;;;11.93;6.30;;;;;;;;;;5095870;28;20566;-85
2022/08/27 12:01:52;;;;;;;6.30;5.70;;;;;;;;;;5090071;28;20434;-84
2022/08/27 12:04:21;;;;;;;5.63;4.70;;;;;;;;;;5089561;28;20837;-85
2022/08/27 12:06:51;;;;;;;7.33;5.93;;;;;;;;;;5091431;28;20438;-83
2022/08/27 12:09:20;;;;;;;5.80;5.30;;;;;;;;;;5092656;28;20534;-86
2022/08/27 12:11:55;;;;;;;9.53;5.80;;;;;;;;;;5092745;28;20435;-82
2022/08/27 12:14:31;;;;;;;6.13;5.43;;;;;;;;;;5093854;28;20538;-84
2022/08/27 12:17:02;;;;;;;6.90;5.03;;;;;;;;;;5092988;28;20936;-83
2022/08/27 12:19:34;;;;;;;9.50;5.27;;;;;;;;;;5095457;28;20632;-86
2022/08/27 12:22:07;;;;;;;8.10;5.47;;;;;;;;;;5095708;28;20439;-80
2022/08/27 12:24:41;;;;;;;6.23;5.53;;;;;;;;;;5090406;28;20531;-86
2022/08/27 12:27:27;;;;;;;8.20;6.03;;;;;;;;;;5089040;28;20527;-86
2022/08/27 12:29:56;;;;;;;7.73;6.27;;;;;;;;;;5091475;28;20435;-83
2022/08/27 12:32:26;;;;;;;5.90;5.20;;;;;;;;;;5092892;28;20478;-84
2022/08/27 12:35:00;;;;;;;8.60;5.80;;;;;;;;;;5092802;28;20554;-83
2022/08/27 12:37:29;;;;;;;9.67;6.10;;;;;;;;;;5093266;28;20475;-86
2022/08/27 12:39:58;;;;;;;5.07;4.63;;;;;;;;;;5093073;28;20532;-83
2022/08/27 12:42:26;;;;;;;6.47;5.47;;;;;;;;;;5095189;28;20984;-86
2022/08/27 12:44:55;;;;;;;6.97;5.20;;;;;;;;;;5095003;28;20551;-84
2022/08/27 12:47:23;;;;;;;6.20;5.20;;;;;;;;;;5089725;28;20951;-82
2022/08/27 12:49:53;;;;;;;6.10;5.50;;;;;;;;;;5088465;28;20520;-85
2022/08/27 12:52:36;;;;;;;6.10;5.50;;;;;;;;;;5090741;28;21023;-87
2022/08/27 12:55:10;;;;;;;7.47;5.07;;;;;;;;;;5092408;28;21027;-85
2022/08/27 12:57:43;;;;;;;8.30;5.10;;;;;;;;;;5092787;28;20435;-83
2022/08/27 13:00:14;;;;;;;7.47;5.70;;;;;;;;;;5092797;28;20471;-81
2022/08/27 13:02:57;;;;;;;5.50;5.00;;;;;;;;;;5092695;28;20451;-81
2022/08/27 13:05:24;;;;;;;6.47;4.70;;;;;;;;;;5094580;28;20463;-84
2022/08/27 13:07:53;;;;;;;5.60;5.00;;;;;;;;;;5093438;28;20530;-82
2022/08/27 13:10:21;;;;;;;5.20;4.57;;;;;;;;;;5087323;28;20454;-84
2022/08/27 13:13:00;;;;;;;8.83;5.60;;;;;;;;;;5088422;28;20519;-83
2022/08/27 13:15:28;;;;;;;6.03;5.30;;;;;;;;;;5091528;28;20546;-81
2022/08/27 13:17:55;;;;;;;7.17;5.43;;;;;;;;;;5092024;28;20439;-83
2022/08/27 13:20:23;;;;;;;8.10;5.00;;;;;;;;;;5092392;28;20581;-84
2022/08/27 13:22:51;;;;;;;7.73;6.93;;;;;;;;;;5092606;28;20475;-85
2022/08/27 13:25:21;;;;;;;6.87;6.17;;;;;;;;;;5092147;28;20479;-84
2022/08/27 13:27:53;;;;;;;7.07;6.40;;;;;;;;;;5094438;28;20444;-84
2022/08/27 13:30:22;;;;;;;6.80;6.20;;;;;;;;;;5094410;28;20524;-81
2022/08/27 13:32:49;;;;;;;6.50;5.90;;;;;;;;;;5088427;28;20510;-82
2022/08/27 13:35:17;;;;;;;7.67;6.97;;;;;;;;;;5087368;28;20517;-79
2022/08/27 13:37:46;;;;;;;7.37;6.07;;;;;;;;;;5091220;28;20446;-80
2022/08/27 13:40:23;;;;;;;8.60;6.87;;;;;;;;;;5090673;28;21039;-79
2022/08/27 13:42:52;;;;;;;8.40;5.90;;;;;;;;;;5090873;28;20451;-80
2022/08/27 13:45:19;;;;;;;6.03;5.43;;;;;;;;;;5092304;28;20451;-79
2022/08/27 13:47:48;;;;;;;9.83;6.10;;;;;;;;;;5091694;28;20550;-79
2022/08/27 13:50:20;;;;;;;7.27;5.90;;;;;;;;;;5092598;28;20987;-81
2022/08/27 13:55:29;;;;;;;6.27;5.40;;;;;;;;;;5086876;28;20889;-81
2022/08/27 13:57:58;;;;;;;9.40;6.57;;;;;;;;;;5087796;28;20511;-79
2022/08/27 14:00:28;;;;;;;7.23;5.77;;;;;;;;;;5090837;28;20483;-81
2022/08/27 14:02:57;;;;;;;7.30;5.50;;;;;;;;;;5091456;28;20798;-79
2022/08/27 14:05:28;;;;;;;6.57;5.77;;;;;;;;;;5091733;28;20553;-78
2022/08/27 14:07:57;;;;;;;6.43;5.67;;;;;;;;;;5092176;28;20445;-78
2022/08/27 14:10:30;;;;;;;6.37;5.67;;;;;;;;;;5090323;28;20538;-80
2022/08/27 14:12:59;;;;;;;8.23;5.50;;;;;;;;;;5093793;28;20883;-78
2022/08/27 14:15:31;;;;;;;5.93;5.40;;;;;;;;;;5093629;28;20550;-78
2022/08/27 14:17:58;;;;;;;6.13;5.37;;;;;;;;;;5087486;28;20455;-79
2022/08/27 14:20:25;;;;;;;7.00;5.40;;;;;;;;;;5087164;28;20486;-80
2022/08/27 14:22:53;;;;;;;5.87;5.37;;;;;;;;;;5088966;28;20948;-80
2022/08/27 14:25:20;;;;;;;6.33;5.10;;;;;;;;;;5089875;28;20491;-80
2022/08/27 14:27:48;;;;;;;6.20;5.53;;;;;;;;;;5091223;28;20534;-79
2022/08/27 14:30:19;;;;;;;6.97;5.23;;;;;;;;;;5092023;28;20443;-80
2022/08/27 14:32:47;;;;;;;5.07;4.57;;;;;;;;;;5092807;28;20431;-80
2022/08/27 14:35:14;;;;;;;4.47;4.07;;;;;;;;;;5097557;28;20536;-82
2022/08/27 14:37:41;;;;;;;4.73;3.83;;;;;;;;;;5097591;28;20439;-79
2022/08/27 14:40:10;;;;;;;6.50;4.40;;;;;;;;;;5092483;28;20875;-81
2022/08/27 14:42:38;;;;;;;4.70;4.30;;;;;;;;;;5091212;28;20900;-79
2022/08/27 14:45:05;;;;;;;6.67;3.57;;;;;;;;;;5093226;28;20455;-79
2022/08/27 14:47:36;;;;;;;7.03;4.20;;;;;;;;;;5095124;28;20535;-80
2022/08/27 14:50:04;;;;;;;5.03;3.83;;;;;;;;;;5095131;28;20889;-80
2022/08/27 14:52:31;;;;;;;4.40;4.03;;;;;;;;;;5094956;28;20990;-80